createdAt,value
2018-09-20T00:00:26.507Z,4.90
2018-09-20T00:02:54.951Z,4.97
2018-09-20T00:05:22.766Z,4.90
2018-09-20T00:07:51.240Z,5.00
2018-09-20T00:10:19.811Z,4.70
2018-09-20T00:12:48.079Z,4.97
2018-09-20T00:15:15.960Z,4.67
2018-09-20T00:17:44.400Z,5.17
2018-09-20T00:20:12.250Z,6.43
2018-09-20T00:22:40.888Z,5.70
2018-09-20T00:25:09.327Z,5.97
2018-09-20T00:27:37.765Z,5.40
2018-09-20T00:30:06.224Z,5.50
2018-09-20T00:32:34.653Z,5.33
2018-09-20T00:35:03.070Z,5.27
2018-09-20T00:37:30.899Z,5.87
2018-09-20T00:39:58.723Z,5.10
2018-09-20T00:42:26.555Z,5.03
2018-09-20T00:44:54.368Z,5.07
2018-09-20T00:47:22.939Z,5.03
2018-09-20T00:49:50.743Z,5.03
2018-09-20T00:52:18.571Z,4.97
2018-09-20T00:54:46.495Z,5.33
2018-09-20T00:57:14.319Z,5.50
2018-09-20T00:59:42.132Z,5.07
2018-09-20T01:02:09.971Z,5.10
2018-09-20T01:04:38.484Z,4.97
2018-09-20T01:07:06.904Z,5.20
2018-09-20T01:09:35.535Z,5.13
2018-09-20T01:12:04.175Z,4.90
2018-09-20T01:14:32.824Z,5.47
2018-09-20T01:17:01.233Z,5.40
2018-09-20T01:19:29.770Z,5.37
2018-09-20T01:21:58.359Z,5.07
2018-09-20T01:24:26.959Z,5.37
2018-09-20T01:26:55.182Z,5.03
2018-09-20T01:29:23.647Z,5.40
2018-09-20T01:31:52.088Z,4.70
2018-09-20T01:34:20.489Z,5.70
2018-09-20T01:36:48.745Z,5.30
2018-09-20T01:39:17.289Z,5.27
2018-09-20T01:41:45.798Z,5.63
2018-09-20T01:44:14.371Z,5.07
2018-09-20T01:46:42.537Z,5.20
2018-09-20T01:49:10.748Z,5.57
2018-09-20T01:51:39.047Z,5.77
2018-09-20T01:54:06.944Z,5.53
2018-09-20T01:56:34.778Z,5.23
2018-09-20T01:59:02.968Z,5.30
2018-09-20T02:01:31.359Z,5.63
2018-09-20T02:03:59.610Z,5.53
2018-09-20T02:06:27.846Z,6.43
2018-09-20T02:08:56.079Z,6.53
2018-09-20T02:11:24.330Z,5.80
2018-09-20T02:13:52.575Z,5.40
2018-09-20T02:16:20.835Z,5.80
2018-09-20T02:18:49.075Z,5.63
2018-09-20T02:21:17.715Z,5.67
2018-09-20T02:23:46.221Z,5.03
2018-09-20T02:26:14.839Z,6.47
2018-09-20T02:28:43.244Z,5.27
2018-09-20T02:31:11.823Z,6.20
2018-09-20T02:33:40.324Z,6.27
2018-09-20T02:36:08.765Z,5.00
2018-09-20T02:38:36.948Z,6.20
2018-09-20T02:41:05.233Z,5.60
2018-09-20T02:43:33.671Z,5.97
2018-09-20T02:46:01.900Z,5.77
2018-09-20T02:48:30.455Z,6.67
2018-09-20T02:50:59.183Z,6.47
2018-09-20T02:53:27.652Z,6.60
2018-09-20T02:55:56.336Z,6.83
2018-09-20T02:58:24.699Z,6.37
2018-09-20T03:00:53.159Z,6.60
2018-09-20T03:03:21.806Z,6.00
2018-09-20T03:05:50.463Z,6.13
2018-09-20T03:08:19.066Z,6.63
2018-09-20T03:10:47.511Z,6.20
2018-09-20T03:13:16.170Z,6.07
2018-09-20T03:15:44.782Z,6.13
2018-09-20T03:18:13.007Z,5.87
2018-09-20T03:20:41.239Z,6.37
2018-09-20T03:23:09.539Z,6.33
2018-09-20T03:25:38.158Z,5.93
2018-09-20T03:28:06.644Z,6.30
2018-09-20T03:30:35.169Z,6.10
2018-09-20T03:33:03.672Z,6.17
2018-09-20T03:35:31.632Z,5.90
2018-09-20T03:37:59.463Z,6.20
2018-09-20T03:40:27.296Z,6.77
2018-09-20T03:42:55.867Z,5.90
2018-09-20T03:45:24.266Z,5.90
2018-09-20T03:47:52.743Z,6.00
2018-09-20T03:50:21.362Z,6.17
2018-09-20T03:52:50.009Z,5.67
2018-09-20T03:55:18.631Z,6.33
2018-09-20T03:57:47.080Z,5.80
2018-09-20T04:00:15.563Z,6.13
2018-09-20T04:02:43.945Z,6.23
2018-09-20T04:05:12.163Z,5.87
2018-09-20T04:07:40.639Z,6.70
2018-09-20T04:10:09.048Z,6.77
2018-09-20T04:12:37.412Z,6.17
2018-09-20T04:15:05.964Z,5.93
2018-09-20T04:17:34.398Z,6.10
2018-09-20T04:20:02.851Z,7.10
2018-09-20T04:22:31.649Z,6.50
2018-09-20T04:25:00.133Z,6.20
2018-09-20T04:27:28.519Z,6.23
2018-09-20T04:29:56.979Z,6.33
2018-09-20T04:32:25.475Z,6.37
2018-09-20T04:34:53.372Z,6.17
2018-09-20T04:37:21.192Z,6.30
2018-09-20T04:39:49.120Z,6.00
2018-09-20T04:42:17.619Z,6.47
2018-09-20T04:44:46.255Z,6.03
2018-09-20T04:47:14.912Z,5.77
2018-09-20T04:49:43.529Z,6.70
2018-09-20T04:52:12.200Z,6.60
2018-09-20T04:54:40.609Z,6.40
2018-09-20T04:57:09.278Z,5.83
2018-09-20T04:59:39.084Z,6.90
2018-09-20T05:02:07.708Z,6.33
2018-09-20T05:04:36.906Z,7.27
2018-09-20T05:07:05.368Z,6.27
2018-09-20T05:09:34.071Z,6.50
2018-09-20T05:12:03.009Z,6.57
2018-09-20T05:14:31.676Z,7.57
2018-09-20T05:17:00.319Z,6.67
2018-09-20T05:19:28.938Z,6.23
2018-09-20T05:21:57.364Z,6.80
2018-09-20T05:24:25.583Z,7.80
2018-09-20T05:26:54.050Z,6.90
2018-09-20T05:29:22.505Z,8.77
2018-09-20T05:31:50.935Z,9.40
2018-09-20T05:34:19.576Z,9.77
2018-09-20T05:36:48.263Z,7.63
2018-09-20T05:39:16.875Z,8.17
2018-09-20T05:41:45.242Z,8.07
2018-09-20T05:44:13.784Z,8.20
2018-09-20T05:46:43.165Z,7.50
2018-09-20T05:49:11.111Z,8.03
2018-09-20T05:51:39.119Z,8.80
2018-09-20T05:54:07.273Z,7.77
2018-09-20T05:56:35.129Z,7.77
2018-09-20T05:59:03.006Z,8.20
2018-09-20T06:01:30.829Z,7.57
2018-09-20T06:03:58.671Z,8.27
2018-09-20T06:06:26.494Z,7.07
2018-09-20T06:08:54.791Z,7.90
2018-09-20T06:11:22.626Z,8.03
2018-09-20T06:13:50.454Z,7.87
2018-09-20T06:16:18.308Z,8.07
2018-09-20T06:18:46.134Z,8.30
2018-09-20T06:21:13.970Z,8.77
2018-09-20T06:23:41.829Z,8.90
2018-09-20T06:26:09.659Z,10.63
2018-09-20T06:28:37.516Z,9.20
2018-09-20T06:31:05.369Z,8.97
2018-09-20T06:33:33.195Z,10.00
2018-09-20T06:36:01.152Z,8.67
2018-09-20T06:38:28.987Z,9.27
2018-09-20T06:40:56.933Z,8.93
2018-09-20T06:43:24.759Z,8.77
2018-09-20T06:45:52.683Z,9.50
2018-09-20T06:48:20.536Z,8.90
2018-09-20T06:50:48.400Z,10.37
2018-09-20T06:53:16.272Z,9.50
2018-09-20T06:55:44.133Z,10.10
2018-09-20T06:58:12.003Z,9.00
2018-09-20T07:00:39.847Z,9.00
2018-09-20T07:03:07.705Z,8.73
2018-09-20T07:05:35.597Z,9.90
2018-09-20T07:08:03.490Z,9.90
2018-09-20T07:10:31.366Z,9.03
2018-09-20T07:12:59.243Z,9.10
2018-09-20T07:15:27.114Z,9.40
2018-09-20T07:17:54.952Z,9.50
2018-09-20T07:20:22.783Z,9.73
2018-09-20T07:22:50.619Z,10.00
2018-09-20T07:25:18.580Z,8.93
2018-09-20T07:27:46.360Z,8.97
2018-09-20T07:30:14.473Z,8.50
2018-09-20T07:32:42.344Z,10.10
2018-09-20T07:35:10.262Z,9.23
2018-09-20T07:37:38.103Z,9.40
2018-09-20T07:40:06.018Z,8.40
2018-09-20T07:42:33.871Z,9.80
2018-09-20T07:45:02.559Z,9.10
2018-09-20T07:47:30.567Z,10.40
2018-09-20T07:49:58.423Z,8.97
2018-09-20T07:52:26.280Z,9.90
2018-09-20T07:54:54.177Z,8.70
2018-09-20T07:57:22.561Z,9.07
2018-09-20T07:59:50.403Z,9.47
2018-09-20T08:02:18.233Z,8.33
2018-09-20T08:04:46.125Z,8.93
2018-09-20T08:07:14.035Z,8.33
2018-09-20T08:09:41.959Z,8.47
2018-09-20T08:12:09.844Z,8.27
2018-09-20T08:14:37.681Z,8.40
2018-09-20T08:17:06.325Z,8.33
2018-09-20T08:19:34.180Z,7.80
2018-09-20T08:22:02.036Z,7.70
2018-09-20T08:24:30.199Z,7.70
2018-09-20T08:26:58.054Z,7.23
2018-09-20T08:29:26.088Z,7.27
2018-09-20T08:31:54.055Z,7.03
2018-09-20T08:34:21.895Z,7.27
2018-09-20T08:36:49.774Z,6.77
2018-09-20T08:39:17.605Z,7.20
2018-09-20T08:41:45.517Z,7.20
2018-09-20T08:44:13.393Z,6.57
2018-09-20T08:46:41.231Z,6.43
2018-09-20T08:49:09.755Z,7.80
2018-09-20T08:51:37.598Z,7.30
2018-09-20T08:54:05.433Z,6.97
2018-09-20T08:56:33.258Z,6.37
2018-09-20T08:59:01.114Z,6.93
2018-09-20T09:01:29.105Z,6.80
2018-09-20T09:03:56.954Z,6.33
2018-09-20T09:06:24.788Z,5.90
2018-09-20T09:08:52.683Z,6.27
2018-09-20T09:11:20.546Z,7.43
2018-09-20T09:13:48.415Z,6.83
2018-09-20T09:16:16.295Z,5.80
2018-09-20T09:18:44.268Z,6.53
2018-09-20T09:21:12.785Z,6.50
2018-09-20T09:23:40.642Z,6.47
2018-09-20T09:26:08.592Z,6.50
2018-09-20T09:28:36.452Z,6.40
2018-09-20T09:31:04.299Z,6.17
2018-09-20T09:33:32.152Z,6.57
2018-09-20T09:35:59.978Z,6.47
2018-09-20T09:38:27.820Z,5.87
2018-09-20T09:40:55.721Z,6.23
2018-09-20T09:43:23.564Z,6.47
2018-09-20T09:45:51.401Z,6.40
2018-09-20T09:48:19.704Z,5.93
2018-09-20T09:50:47.552Z,5.80
2018-09-20T09:53:15.504Z,6.07
2018-09-20T09:55:43.336Z,5.10
2018-09-20T09:58:11.229Z,5.37
2018-09-20T10:00:40.823Z,6.53
2018-09-20T10:03:08.691Z,5.83
2018-09-20T10:05:36.571Z,5.33
2018-09-20T10:08:04.417Z,5.43
2018-09-20T10:10:32.278Z,5.57
2018-09-20T10:13:00.120Z,5.23
2018-09-20T10:15:27.947Z,5.50
2018-09-20T10:17:55.800Z,4.97
2018-09-20T10:20:23.684Z,5.60
2018-09-20T10:22:51.569Z,5.53
2018-09-20T10:25:19.713Z,5.60
2018-09-20T10:27:47.572Z,6.00
2018-09-20T10:30:15.427Z,5.20
2018-09-20T10:32:43.280Z,5.30
2018-09-20T10:35:11.119Z,5.40
2018-09-20T10:37:39.019Z,6.03
2018-09-20T10:40:06.874Z,5.50
2018-09-20T10:42:34.707Z,5.10
2018-09-20T10:45:02.622Z,4.80
2018-09-20T10:47:30.463Z,5.00
2018-09-20T10:49:58.367Z,5.87
2018-09-20T10:52:26.548Z,5.33
2018-09-20T10:54:54.390Z,5.03
2018-09-20T10:57:22.660Z,4.97
2018-09-20T10:59:50.500Z,5.37
2018-09-20T11:02:18.359Z,5.17
2018-09-20T11:04:46.189Z,5.47
2018-09-20T11:07:14.027Z,5.07
2018-09-20T11:09:41.845Z,4.90
2018-09-20T11:12:09.679Z,5.03
2018-09-20T11:14:37.513Z,6.30
2018-09-20T11:17:05.379Z,5.27
2018-09-20T11:19:33.208Z,6.13
2018-09-20T11:22:01.052Z,6.37
2018-09-20T11:24:28.895Z,4.63
2018-09-20T11:26:56.720Z,5.43
2018-09-20T11:29:25.099Z,5.40
2018-09-20T11:31:52.951Z,5.47
2018-09-20T11:34:20.812Z,4.97
2018-09-20T11:36:49.448Z,4.70
2018-09-20T11:39:18.066Z,5.13
2018-09-20T11:41:46.461Z,5.40
2018-09-20T11:44:14.302Z,5.50
2018-09-20T11:49:14.699Z,5.00
2018-09-20T11:51:42.540Z,6.13
2018-09-20T11:54:10.390Z,4.93
2018-09-20T11:56:38.230Z,4.80
2018-09-20T11:59:06.107Z,4.87
2018-09-20T12:01:34.025Z,4.23
2018-09-20T12:04:01.863Z,5.13
2018-09-20T12:06:29.729Z,4.57
2018-09-20T12:08:57.569Z,4.80
2018-09-20T12:11:25.760Z,4.80
2018-09-20T12:13:53.583Z,4.83
2018-09-20T12:16:21.415Z,5.13
2018-09-20T12:18:49.275Z,4.90
2018-09-20T12:21:17.108Z,5.00
2018-09-20T12:23:44.935Z,4.33
2018-09-20T12:26:12.775Z,4.30
2018-09-20T12:28:40.623Z,17.13
2018-09-20T12:31:08.535Z,7.20
2018-09-20T12:33:36.419Z,6.20
2018-09-20T12:36:04.346Z,4.80
2018-09-20T12:38:32.147Z,4.53
2018-09-20T12:40:59.998Z,4.57
2018-09-20T12:43:27.873Z,4.43
2018-09-20T12:45:55.719Z,4.77
2018-09-20T12:48:23.613Z,4.17
2018-09-20T12:50:51.456Z,4.33
2018-09-20T12:53:19.366Z,4.87
2018-09-20T12:55:47.198Z,5.43
2018-09-20T12:58:15.056Z,5.47
2018-09-20T13:00:42.974Z,4.50
2018-09-20T13:03:10.800Z,4.37
2018-09-20T13:05:39.311Z,5.73
2018-09-20T13:08:07.147Z,4.10
2018-09-20T13:10:34.988Z,4.10
2018-09-20T13:13:02.913Z,4.03
2018-09-20T13:15:30.716Z,4.00
2018-09-20T13:17:58.535Z,3.97
2018-09-20T13:20:26.412Z,3.97
2018-09-20T13:22:54.234Z,4.07
2018-09-20T13:25:22.126Z,3.77
2018-09-20T13:27:49.964Z,3.63
2018-09-20T13:30:17.795Z,3.37
2018-09-20T13:32:45.618Z,3.40
2018-09-20T13:35:13.435Z,3.93
2018-09-20T13:37:41.309Z,3.70
2018-09-20T13:40:09.142Z,3.83
2018-09-20T13:42:37.092Z,4.40
2018-09-20T13:45:04.959Z,3.63
2018-09-20T13:47:32.772Z,3.80
2018-09-20T13:50:00.623Z,5.60
2018-09-20T13:52:28.767Z,4.37
2018-09-20T13:54:56.595Z,3.47
2018-09-20T13:57:24.415Z,4.27
2018-09-20T13:59:52.360Z,3.93
2018-09-20T14:02:20.479Z,4.37
2018-09-20T14:04:48.296Z,3.77
2018-09-20T14:07:16.143Z,3.80
2018-09-20T14:09:44.075Z,4.23
2018-09-20T14:12:11.895Z,4.07
2018-09-20T14:14:39.742Z,4.23
2018-09-20T14:17:07.735Z,3.73
2018-09-20T14:19:35.704Z,4.13
2018-09-20T14:22:03.608Z,4.07
2018-09-20T14:24:31.467Z,4.57
2018-09-20T14:26:59.309Z,4.60
2018-09-20T14:29:27.188Z,4.17
2018-09-20T14:31:55.045Z,4.20
2018-09-20T14:34:23.040Z,3.83
2018-09-20T14:36:50.896Z,4.23
2018-09-20T14:39:18.741Z,4.33
2018-09-20T14:41:46.927Z,4.40
2018-09-20T14:44:14.756Z,4.43
2018-09-20T14:46:42.611Z,4.03
2018-09-20T14:49:10.435Z,4.70
2018-09-20T14:51:38.269Z,4.70
2018-09-20T14:54:06.251Z,4.27
2018-09-20T14:56:34.083Z,4.60
2018-09-20T14:59:01.928Z,4.30
2018-09-20T15:01:29.780Z,4.27
2018-09-20T15:03:57.601Z,4.43
2018-09-20T15:06:25.451Z,3.87
2018-09-20T15:08:53.304Z,5.07
2018-09-20T15:11:21.124Z,4.10
2018-09-20T15:13:48.998Z,4.07
2018-09-20T15:16:16.895Z,4.33
2018-09-20T15:18:44.735Z,4.77
2018-09-20T15:21:12.571Z,4.70
2018-09-20T15:23:40.408Z,5.30
2018-09-20T15:26:08.251Z,4.60
2018-09-20T15:28:36.114Z,4.53
2018-09-20T15:31:03.985Z,4.10
2018-09-20T15:33:31.814Z,3.87
2018-09-20T15:35:59.657Z,4.13
2018-09-20T15:38:27.483Z,4.10
2018-09-20T15:40:55.311Z,4.07
2018-09-20T15:43:23.149Z,4.20
2018-09-20T15:45:51.077Z,4.07
2018-09-20T15:48:18.889Z,4.10
2018-09-20T15:50:46.732Z,3.93
2018-09-20T15:53:14.549Z,3.97
2018-09-20T15:55:42.466Z,4.53
2018-09-20T15:58:10.691Z,4.23
2018-09-20T16:00:38.588Z,4.00
2018-09-20T16:03:06.411Z,4.23
2018-09-20T16:05:34.236Z,4.30
2018-09-20T16:08:02.066Z,4.17
2018-09-20T16:10:29.886Z,4.03
2018-09-20T16:12:57.712Z,4.00
2018-09-20T16:15:25.576Z,4.33
2018-09-20T16:17:53.823Z,3.97
2018-09-20T16:20:21.670Z,4.83
2018-09-20T16:22:49.512Z,4.03
2018-09-20T16:25:17.356Z,4.70
2018-09-20T16:27:45.187Z,4.50
2018-09-20T16:30:21.031Z,4.70
2018-09-20T16:32:52.659Z,3.63
2018-09-20T16:36:02.151Z,3.80
2018-09-20T16:38:36.230Z,3.83
2018-09-20T16:41:06.056Z,4.67
2018-09-20T16:43:33.868Z,4.00
2018-09-20T16:46:02.898Z,4.07
2018-09-20T16:48:31.836Z,4.70
2018-09-20T16:50:59.652Z,4.20
2018-09-20T16:53:27.524Z,4.67
2018-09-20T16:55:55.700Z,4.53
2018-09-20T16:58:23.517Z,3.97
2018-09-20T17:00:51.345Z,4.37
2018-09-20T17:03:19.269Z,4.27
2018-09-20T17:05:47.884Z,4.40
2018-09-20T17:08:15.716Z,3.93
2018-09-20T17:10:43.582Z,4.07
2018-09-20T17:13:12.101Z,4.00
2018-09-20T17:15:39.964Z,3.47
2018-09-20T17:18:07.804Z,4.37
2018-09-20T17:20:36.259Z,3.83
2018-09-20T17:23:04.076Z,3.80
2018-09-20T17:25:32.030Z,3.97
2018-09-20T17:27:59.776Z,3.90
2018-09-20T17:30:27.616Z,4.03
2018-09-20T17:32:55.439Z,3.67
2018-09-20T17:35:23.823Z,4.40
2018-09-20T17:37:52.071Z,4.27
2018-09-20T17:40:20.976Z,4.30
2018-09-20T17:42:50.702Z,4.13
2018-09-20T17:45:18.527Z,4.57
2018-09-20T17:47:46.352Z,4.13
2018-09-20T17:50:14.167Z,4.40
2018-09-20T17:52:42.627Z,4.17
2018-09-20T17:55:10.564Z,3.83
2018-09-20T17:57:38.678Z,4.37
2018-09-20T18:00:06.590Z,4.27
2018-09-20T18:02:34.400Z,4.20
2018-09-20T18:05:02.243Z,4.20
2018-09-20T18:07:30.073Z,4.67
2018-09-20T18:09:57.905Z,4.20
2018-09-20T18:12:25.712Z,4.60
2018-09-20T18:14:53.549Z,4.33
2018-09-20T18:17:21.508Z,4.80
2018-09-20T18:19:49.442Z,4.60
2018-09-20T18:22:17.263Z,4.73
2018-09-20T18:24:45.136Z,4.57
2018-09-20T18:27:12.966Z,4.87
2018-09-20T18:29:40.878Z,5.73
2018-09-20T18:32:08.734Z,4.37
2018-09-20T18:34:36.568Z,4.53
2018-09-20T18:37:04.444Z,4.67
2018-09-20T18:39:32.285Z,4.90
2018-09-20T18:42:00.123Z,4.93
2018-09-20T18:44:27.948Z,4.60
2018-09-20T18:46:55.777Z,5.23
2018-09-20T18:49:23.620Z,5.53
2018-09-20T18:51:51.441Z,5.30
2018-09-20T18:54:19.267Z,5.63
2018-09-20T18:56:47.715Z,5.40
2018-09-20T18:59:15.566Z,5.20
2018-09-20T19:01:43.452Z,5.53
2018-09-20T19:04:11.278Z,5.93
2018-09-20T19:06:39.091Z,5.03
2018-09-20T19:09:08.134Z,5.47
2018-09-20T19:11:35.960Z,4.70
2018-09-20T19:14:03.818Z,5.50
2018-09-20T19:16:31.707Z,5.00
2018-09-20T19:18:59.546Z,5.30
2018-09-20T19:21:27.371Z,5.00
2018-09-20T19:23:55.503Z,5.40
2018-09-20T19:26:23.391Z,7.00
2018-09-20T19:28:52.044Z,6.40
2018-09-20T19:31:19.887Z,6.13
2018-09-20T19:33:47.726Z,5.27
2018-09-20T19:36:15.565Z,5.37
2018-09-20T19:38:43.534Z,5.30
2018-09-20T19:41:11.459Z,5.07
2018-09-20T19:43:39.636Z,4.70
2018-09-20T19:46:07.532Z,5.00
2018-09-20T19:48:35.350Z,5.37
2018-09-20T19:51:03.206Z,5.07
2018-09-20T19:53:31.062Z,4.50
2018-09-20T19:55:59.057Z,4.90
2018-09-20T19:58:26.910Z,5.27
2018-09-20T20:00:56.327Z,5.47
2018-09-20T20:03:24.175Z,5.70
2018-09-20T20:05:52.003Z,5.60
2018-09-20T20:08:19.826Z,5.43
2018-09-20T20:10:47.695Z,5.87
2018-09-20T20:13:15.592Z,6.83
2018-09-20T20:15:43.682Z,6.53
2018-09-20T20:18:11.522Z,6.40
2018-09-20T20:20:39.359Z,6.03
2018-09-20T20:23:07.580Z,6.00
2018-09-20T20:25:35.423Z,6.57
2018-09-20T20:28:03.256Z,6.27
2018-09-20T20:30:31.083Z,6.20
2018-09-20T20:32:59.595Z,6.43
2018-09-20T20:35:28.172Z,6.37
2018-09-20T20:37:56.008Z,6.53
2018-09-20T20:40:23.823Z,7.40
2018-09-20T20:42:51.673Z,8.20
2018-09-20T20:45:19.504Z,6.40
2018-09-20T20:47:47.344Z,8.37
2018-09-20T20:50:15.256Z,7.87
2018-09-20T20:52:43.074Z,7.37
2018-09-20T20:55:10.936Z,6.90
2018-09-20T20:57:38.941Z,7.63
2018-09-20T21:00:06.868Z,6.80
2018-09-20T21:02:34.831Z,6.90
2018-09-20T21:05:03.044Z,7.10
2018-09-20T21:07:30.894Z,7.23
2018-09-20T21:09:58.718Z,6.73
2018-09-20T21:12:26.556Z,7.27
2018-09-20T21:14:55.160Z,7.47
2018-09-20T21:17:23.028Z,7.03
2018-09-20T21:19:50.847Z,10.77
2018-09-20T21:22:18.691Z,10.43
2018-09-20T21:24:46.527Z,11.00
2018-09-20T21:27:14.366Z,11.30
2018-09-20T21:29:42.204Z,13.10
2018-09-20T21:32:10.214Z,11.10
2018-09-20T21:34:38.260Z,12.27
2018-09-20T21:37:06.311Z,11.00
2018-09-20T21:39:34.256Z,10.53
2018-09-20T21:42:02.092Z,10.40
2018-09-20T21:44:29.918Z,9.60
2018-09-20T21:46:57.744Z,9.97
2018-09-20T21:49:25.563Z,10.53
2018-09-20T21:51:53.402Z,10.13
2018-09-20T21:54:21.232Z,9.30
2018-09-20T21:56:49.054Z,8.70
2018-09-20T21:59:16.896Z,8.03
2018-09-20T22:01:49.895Z,7.03
2018-09-20T22:04:17.725Z,7.90
2018-09-20T22:06:45.551Z,7.10
2018-09-20T22:09:13.685Z,6.97
2018-09-20T22:11:41.963Z,6.67
2018-09-20T22:14:09.821Z,6.13
2018-09-20T22:16:38.257Z,6.63
2018-09-20T22:19:06.220Z,6.50
2018-09-20T22:21:34.360Z,6.97
2018-09-20T22:24:02.210Z,6.60
2018-09-20T22:26:30.082Z,6.50
2018-09-20T22:28:58.010Z,6.30
2018-09-20T22:31:25.844Z,6.67
2018-09-20T22:33:53.710Z,5.77
2018-09-20T22:36:21.566Z,6.30
2018-09-20T22:38:49.396Z,7.07
2018-09-20T22:41:17.377Z,6.43
2018-09-20T22:43:45.228Z,6.60
2018-09-20T22:46:13.068Z,6.87
2018-09-20T22:48:40.939Z,6.93
2018-09-20T22:51:09.435Z,6.30
2018-09-20T22:53:37.267Z,6.20
2018-09-20T22:56:05.099Z,6.27
2018-09-20T22:58:32.943Z,6.37
2018-09-20T23:01:00.821Z,5.93
2018-09-20T23:03:28.660Z,6.37
2018-09-20T23:05:56.479Z,6.13
2018-09-20T23:08:24.302Z,6.20
2018-09-20T23:10:52.124Z,5.87
2018-09-20T23:13:20.004Z,6.97
2018-09-20T23:15:47.938Z,6.23
2018-09-20T23:18:15.759Z,6.17
2018-09-20T23:20:43.772Z,6.30
2018-09-20T23:23:11.586Z,6.40
2018-09-20T23:25:39.434Z,5.93
2018-09-20T23:28:07.264Z,6.17
2018-09-20T23:30:35.092Z,5.90
2018-09-20T23:33:02.915Z,6.10
2018-09-20T23:35:30.753Z,6.90
2018-09-20T23:37:58.564Z,5.90
2018-09-20T23:40:26.374Z,6.30
2018-09-20T23:42:54.218Z,5.77
2018-09-20T23:45:22.085Z,6.10
2018-09-20T23:47:49.893Z,6.50
2018-09-20T23:50:17.714Z,5.87
2018-09-20T23:52:45.567Z,6.30
2018-09-20T23:55:14.031Z,6.13
2018-09-20T23:57:42.473Z,6.13
